createdAt,value
2022-08-07T00:01:44.306Z,14420.57
2022-08-07T00:04:11.211Z,14447.58
2022-08-07T00:06:51.817Z,14422.87
2022-08-07T00:09:22.773Z,14410.01
2022-08-07T00:11:56.118Z,14406.23
2022-08-07T00:14:30.164Z,14382.79
2022-08-07T00:17:02.261Z,14412.25
2022-08-07T00:20:00.425Z,14369.79
2022-08-07T00:22:24.917Z,14358.29
2022-08-07T00:25:11.080Z,14403.68
2022-08-07T00:27:52.965Z,14395.71
2022-08-07T00:30:27.463Z,14400.03
2022-08-07T00:33:00.187Z,14389.65
2022-08-07T00:35:29.755Z,14381.99
2022-08-07T00:37:58.447Z,14376.55
2022-08-07T00:40:39.673Z,14380.16
2022-08-07T00:43:09.914Z,14442.56
2022-08-07T00:45:41.200Z,14384.11
2022-08-07T00:48:10.871Z,14395.92
2022-08-07T00:50:50.887Z,14434.57
2022-08-07T00:53:20.562Z,14428.17
2022-08-07T00:56:03.207Z,14431.49
2022-08-07T00:58:31.655Z,14378.28
2022-08-07T01:00:59.090Z,14400.03
2022-08-07T01:03:55.332Z,14396.07
2022-08-07T01:06:13.054Z,14388.07
2022-08-07T01:08:43.111Z,14432.41
2022-08-07T01:11:23.670Z,14368.66
2022-08-07T01:14:07.166Z,14346.41
2022-08-07T01:16:37.078Z,14354.56
2022-08-07T01:19:14.787Z,14369.09
2022-08-07T01:21:48.128Z,14387.35
2022-08-07T01:24:18.750Z,14367.91
2022-08-07T01:26:52.171Z,14374.53
2022-08-07T01:29:23.334Z,14348.20
2022-08-07T01:31:51.794Z,14359.58
2022-08-07T01:34:19.705Z,14359.70
2022-08-07T01:36:52.760Z,14358.43
2022-08-07T01:39:39.700Z,14345.42
2022-08-07T01:42:38.210Z,14298.55
2022-08-07T01:44:55.421Z,14361.75
2022-08-07T01:48:20.351Z,14392.02
2022-08-07T01:50:09.882Z,14417.97
2022-08-07T01:52:49.415Z,14428.86
2022-08-07T01:55:26.830Z,14414.45
2022-08-07T01:58:05.479Z,14424.48
2022-08-07T02:00:58.034Z,14331.16
2022-08-07T02:03:48.717Z,14335.72
2022-08-07T02:06:31.950Z,14339.24
2022-08-07T02:09:04.465Z,14320.30
2022-08-07T02:12:03.591Z,14347.73
2022-08-07T02:14:35.668Z,14310.17
2022-08-07T02:17:03.911Z,14306.25
2022-08-07T02:20:04.157Z,14305.69
2022-08-07T02:22:25.726Z,14323.74
2022-08-07T02:24:55.903Z,14309.74
2022-08-07T02:27:26.181Z,14290.16
2022-08-07T02:30:04.029Z,14285.94
2022-08-07T02:32:35.011Z,14304.90
2022-08-07T02:35:04.200Z,14335.46
2022-08-07T02:37:44.089Z,14346.31
2022-08-07T02:40:29.739Z,14345.21
2022-08-07T02:42:59.989Z,14352.16
2022-08-07T02:45:58.593Z,14351.08
2022-08-07T02:48:17.336Z,14328.24
2022-08-07T02:50:50.221Z,14284.65
2022-08-07T02:53:28.542Z,14328.22
2022-08-07T02:56:03.536Z,14349.86
2022-08-07T02:58:33.368Z,14388.69
2022-08-07T03:01:03.539Z,14345.63
2022-08-07T03:03:49.239Z,14349.20
2022-08-07T03:06:25.900Z,14358.31
2022-08-07T03:09:01.817Z,14370.88
2022-08-07T03:11:32.670Z,14407.58
2022-08-07T03:14:03.518Z,14352.78
2022-08-07T03:16:31.815Z,14358.36
2022-08-07T03:18:59.971Z,14369.21
2022-08-07T03:21:28.497Z,14370.09
2022-08-07T03:24:20.116Z,14388.37
2022-08-07T03:26:58.404Z,14373.46
2022-08-07T03:29:39.554Z,14347.33
2022-08-07T03:32:20.897Z,14365.84
2022-08-07T03:35:01.078Z,14347.51
2022-08-07T03:37:45.865Z,14358.23
2022-08-07T03:40:16.663Z,14373.77
2022-08-07T03:42:44.692Z,14391.03
2022-08-07T03:45:12.272Z,14365.65
2022-08-07T03:47:58.427Z,14367.71
2022-08-07T03:50:28.616Z,14372.17
2022-08-07T03:52:58.892Z,14391.74
2022-08-07T03:55:57.362Z,14381.98
2022-08-07T03:59:05.609Z,14429.31
2022-08-07T04:01:04.963Z,14387.23
2022-08-07T04:03:49.543Z,14376.27
2022-08-07T04:06:37.516Z,14388.07
2022-08-07T04:09:05.578Z,14412.82
2022-08-07T04:12:24.441Z,14414.31
2022-08-07T04:14:46.308Z,14460.52
2022-08-07T04:17:21.134Z,14446.52
2022-08-07T04:19:52.290Z,14431.90
2022-08-07T04:22:29.146Z,14416.03
2022-08-07T04:24:58.705Z,14396.42
2022-08-07T04:27:28.609Z,14407.50
2022-08-07T04:30:10.227Z,14381.16
2022-08-07T04:32:44.954Z,14392.41
2022-08-07T04:35:14.989Z,14417.60
2022-08-07T04:38:03.136Z,14428.02
2022-08-07T04:40:31.465Z,14446.20
2022-08-07T04:43:02.170Z,14427.69
2022-08-07T04:45:57.542Z,14438.79
2022-08-07T04:48:53.620Z,14429.83
2022-08-07T04:51:37.310Z,14429.42
2022-08-07T04:54:34.771Z,14411.61
2022-08-07T04:58:15.138Z,14391.29
2022-08-07T05:00:09.838Z,14386.54
2022-08-07T05:03:16.687Z,14386.34
2022-08-07T05:06:19.363Z,14379.01
2022-08-07T05:09:43.470Z,14405.24
2022-08-07T05:12:15.576Z,14391.67
2022-08-07T05:15:04.332Z,14392.06
2022-08-07T05:17:52.068Z,14415.75
2022-08-07T05:20:32.416Z,14432.84
2022-08-07T05:23:06.113Z,14407.48
2022-08-07T05:26:12.997Z,14399.03
2022-08-07T05:28:36.131Z,14414.08
2022-08-07T05:31:11.410Z,14405.78
2022-08-07T05:34:01.246Z,14422.05
2022-08-07T05:36:35.451Z,14441.87
2022-08-07T05:40:04.995Z,14396.98
2022-08-07T05:42:01.588Z,14389.83
2022-08-07T05:44:30.993Z,14347.83
2022-08-07T05:47:01.008Z,14346.38
2022-08-07T05:49:40.870Z,14373.09
2022-08-07T05:52:08.305Z,14372.33
2022-08-07T05:54:53.306Z,14398.10
2022-08-07T05:57:26.780Z,14376.03
2022-08-07T05:59:59.241Z,14345.47
2022-08-07T06:02:31.596Z,14326.17
2022-08-07T06:05:05.747Z,14345.84
2022-08-07T06:08:15.133Z,14390.10
2022-08-07T06:10:22.732Z,14402.49
2022-08-07T06:12:49.544Z,14350.74
2022-08-07T06:15:19.934Z,14382.65
2022-08-07T06:17:53.684Z,14339.26
2022-08-07T06:20:49.435Z,14359.92
2022-08-07T06:23:46.791Z,14308.19
2022-08-07T06:26:00.603Z,14353.24
2022-08-07T06:28:28.452Z,14325.98
2022-08-07T06:30:56.553Z,14324.89
2022-08-07T06:33:26.387Z,14291.12
2022-08-07T06:36:11.843Z,14312.13
2022-08-07T06:38:58.892Z,14320.32
2022-08-07T06:42:01.910Z,14345.41
2022-08-07T06:44:34.179Z,14354.80
2022-08-07T06:47:10.453Z,14344.92
2022-08-07T06:49:51.470Z,14357.65
2022-08-07T06:52:31.654Z,14335.77
2022-08-07T06:55:32.992Z,14344.92
2022-08-07T06:58:02.228Z,14344.87
2022-08-07T07:00:38.804Z,14336.93
2022-08-07T07:03:13.761Z,14322.63
2022-08-07T07:06:03.808Z,14346.20
2022-08-07T07:08:31.104Z,14313.96
2022-08-07T07:11:00.933Z,14340.66
2022-08-07T07:13:43.562Z,14356.73
2022-08-07T07:16:33.981Z,14343.53
2022-08-07T07:19:56.225Z,14352.44
2022-08-07T07:22:05.474Z,14366.91
2022-08-07T07:24:43.060Z,14363.21
2022-08-07T07:27:21.474Z,14321.30
2022-08-07T07:30:09.395Z,14334.11
2022-08-07T07:32:40.535Z,14358.83
2022-08-07T07:35:12.535Z,14356.80
2022-08-07T07:37:47.368Z,14336.61
2022-08-07T07:40:20.168Z,14325.60
2022-08-07T07:42:55.477Z,14357.74
2022-08-07T07:46:40.570Z,14326.90
2022-08-07T07:48:34.890Z,14355.83
2022-08-07T07:51:07.698Z,14360.13
2022-08-07T07:53:51.971Z,14333.97
2022-08-07T07:56:29.969Z,14341.33
2022-08-07T07:59:02.220Z,14364.61
2022-08-07T08:02:03.857Z,14355.32
2022-08-07T08:04:25.378Z,14339.45
2022-08-07T08:06:54.858Z,14348.09
2022-08-07T08:09:29.101Z,14351.46
2022-08-07T08:12:02.558Z,14364.18
2022-08-07T08:14:36.632Z,14355.88
2022-08-07T08:18:36.531Z,14327.66
2022-08-07T08:20:18.222Z,14300.01
2022-08-07T08:22:55.854Z,14309.62
2022-08-07T08:25:42.243Z,14310.59
2022-08-07T08:28:16.840Z,14312.69
2022-08-07T08:31:01.553Z,14334.39
2022-08-07T08:33:34.987Z,14288.10
2022-08-07T08:36:03.202Z,14280.54
2022-08-07T08:38:41.899Z,14298.97
2022-08-07T08:41:57.186Z,14265.18
2022-08-07T08:44:45.693Z,14243.01
2022-08-07T08:47:31.056Z,14209.70
2022-08-07T08:50:39.493Z,14159.18
2022-08-07T08:53:15.354Z,14146.78
2022-08-07T08:55:59.388Z,14131.73
2022-08-07T08:58:54.430Z,14077.27
2022-08-07T09:01:53.061Z,14000.46
2022-08-07T09:04:25.913Z,14090.46
2022-08-07T09:07:34.007Z,14124.51
2022-08-07T09:10:45.438Z,14098.34
2022-08-07T09:13:37.912Z,14061.13
2022-08-07T09:16:30.962Z,14074.68
2022-08-07T09:19:53.575Z,14118.97
2022-08-07T09:24:33.252Z,14107.36
2022-08-07T09:25:39.352Z,14126.95
2022-08-07T09:30:04.693Z,14120.25
2022-08-07T09:31:48.554Z,14121.77
2022-08-07T09:34:54.023Z,14121.66
2022-08-07T09:37:53.470Z,14054.65
2022-08-07T09:40:40.987Z,14015.07
2022-08-07T09:43:40.019Z,14003.93
2022-08-07T09:47:37.183Z,13976.71
2022-08-07T09:50:00.886Z,13956.55
2022-08-07T09:52:39.911Z,13979.00
2022-08-07T09:55:29.486Z,14029.65
2022-08-07T09:58:48.654Z,14017.75
2022-08-07T10:01:52.271Z,13972.25
2022-08-07T10:04:46.006Z,13960.02
2022-08-07T10:07:26.174Z,13940.80
2022-08-07T10:10:22.768Z,13925.66
2022-08-07T10:13:06.297Z,13840.12
2022-08-07T10:15:56.588Z,13787.36
2022-08-07T10:18:51.771Z,13807.07
2022-08-07T10:22:14.524Z,13794.51
2022-08-07T10:25:08.090Z,13800.12
2022-08-07T10:27:44.143Z,13787.20
2022-08-07T10:30:18.643Z,13742.47
2022-08-07T10:33:12.956Z,13730.12
2022-08-07T10:36:11.449Z,13738.03
2022-08-07T10:39:05.504Z,13683.65
2022-08-07T10:41:51.537Z,13680.79
2022-08-07T10:44:45.420Z,13696.73
2022-08-07T10:47:52.606Z,13699.43
2022-08-07T10:50:29.543Z,13711.92
2022-08-07T10:53:21.433Z,13765.19
2022-08-07T10:55:53.418Z,13754.39
2022-08-07T10:58:32.010Z,13760.58
2022-08-07T11:01:22.373Z,13764.83
2022-08-07T11:04:23.402Z,13748.53
2022-08-07T11:07:58.551Z,13755.22
2022-08-07T11:10:48.738Z,13766.98
2022-08-07T11:14:43.606Z,13743.92
2022-08-07T11:16:51.291Z,13738.19
2022-08-07T11:19:59.234Z,13729.07
2022-08-07T11:22:46.366Z,13726.85
2022-08-07T11:25:23.209Z,13715.76
2022-08-07T11:28:02.806Z,13729.77
2022-08-07T11:30:53.192Z,13728.74
2022-08-07T11:33:53.961Z,13661.66
2022-08-07T11:36:44.690Z,13680.80
2022-08-07T11:40:00.474Z,13669.85
2022-08-07T11:42:54.069Z,13681.68
2022-08-07T11:45:36.497Z,13662.93
2022-08-07T11:48:53.967Z,13675.81
2022-08-07T11:51:57.107Z,13697.67
2022-08-07T11:54:34.619Z,13724.26
2022-08-07T11:57:16.969Z,13721.11
2022-08-07T12:00:10.445Z,13680.50
2022-08-07T12:03:41.538Z,13722.61
2022-08-07T12:06:40.263Z,13801.32
2022-08-07T12:09:42.651Z,13809.77
2022-08-07T12:12:24.373Z,13834.41
2022-08-07T12:15:35.444Z,13838.22
2022-08-07T12:18:12.777Z,13829.06
2022-08-07T12:20:58.189Z,13824.73
2022-08-07T12:24:06.177Z,13820.81
2022-08-07T12:26:49.069Z,13832.42
2022-08-07T12:29:37.787Z,13864.85
2022-08-07T12:32:19.423Z,13837.67
2022-08-07T12:34:53.460Z,13853.14
2022-08-07T12:37:28.348Z,13852.71
2022-08-07T12:40:46.559Z,13826.88
2022-08-07T12:43:10.737Z,13842.27
2022-08-07T12:46:04.460Z,13860.55
2022-08-07T12:48:53.070Z,13842.87
2022-08-07T12:51:46.749Z,13844.48
2022-08-07T12:54:38.089Z,13850.23
2022-08-07T12:57:09.587Z,13851.51
2022-08-07T12:59:55.221Z,13804.35
2022-08-07T13:02:59.356Z,13827.37
2022-08-07T13:06:22.018Z,13834.34
2022-08-07T13:10:28.454Z,13811.29
2022-08-07T13:12:43.022Z,13821.47
2022-08-07T13:15:23.527Z,13884.87
2022-08-07T13:18:26.276Z,13885.83
2022-08-07T13:21:10.456Z,13839.03
2022-08-07T13:24:11.501Z,13837.44
2022-08-07T13:27:03.248Z,13838.59
2022-08-07T13:29:42.477Z,13837.23
2022-08-07T13:32:37.628Z,13838.15
2022-08-07T13:35:16.237Z,13850.74
2022-08-07T13:38:08.671Z,13835.61
2022-08-07T13:41:02.135Z,13809.80
2022-08-07T13:43:34.431Z,13846.05
2022-08-07T13:46:11.416Z,13892.07
2022-08-07T13:48:59.579Z,13893.98
2022-08-07T13:52:04.756Z,13873.66
2022-08-07T13:54:22.470Z,13835.80
2022-08-07T13:56:59.696Z,13854.28
2022-08-07T13:59:31.614Z,13855.92
2022-08-07T14:02:05.189Z,13853.83
2022-08-07T14:04:48.905Z,13842.68
2022-08-07T14:07:20.293Z,13889.50
2022-08-07T14:10:03.077Z,13865.56
2022-08-07T14:12:54.170Z,13863.33
2022-08-07T14:15:32.142Z,13803.35
2022-08-07T14:18:29.008Z,13820.38
2022-08-07T14:21:11.709Z,13839.36
2022-08-07T14:24:02.237Z,13838.41
2022-08-07T14:26:50.390Z,13876.27
2022-08-07T14:30:06.199Z,13839.98
2022-08-07T14:32:14.432Z,13860.62
2022-08-07T14:34:45.762Z,13853.11
2022-08-07T14:37:18.846Z,13829.30
2022-08-07T14:40:18.233Z,13847.38
2022-08-07T14:43:00.897Z,13828.86
2022-08-07T14:45:54.516Z,13854.50
2022-08-07T14:51:22.337Z,13869.10
2022-08-07T14:54:30.388Z,13859.59
2022-08-07T14:56:43.127Z,13863.58
2022-08-07T15:00:03.423Z,13841.49
2022-08-07T15:02:31.668Z,13873.66
2022-08-07T15:05:01.628Z,13865.40
2022-08-07T15:07:47.503Z,13896.67
2022-08-07T15:10:25.003Z,13881.33
2022-08-07T15:13:00.929Z,13855.39
2022-08-07T15:15:57.625Z,13878.77
2022-08-07T15:18:41.739Z,13875.19
2022-08-07T15:21:44.833Z,13873.60
2022-08-07T15:25:15.313Z,13881.31
2022-08-07T15:27:06.935Z,13868.48
2022-08-07T15:30:08.844Z,13857.33
2022-08-07T15:32:39.953Z,13882.25
2022-08-07T15:36:01.672Z,13872.07
2022-08-07T15:38:30.179Z,13862.82
2022-08-07T15:44:00.875Z,13868.77
2022-08-07T15:52:20.392Z,13859.91
2022-08-07T15:54:50.219Z,13867.45
2022-08-07T15:57:39.672Z,13869.16
2022-08-07T16:00:31.580Z,13871.52
2022-08-07T16:03:21.725Z,13874.33
2022-08-07T16:06:09.468Z,13864.11
2022-08-07T16:08:42.738Z,13882.65
2022-08-07T16:11:50.778Z,13870.40
2022-08-07T16:14:33.269Z,13880.72
2022-08-07T16:18:01.551Z,13868.29
2022-08-07T16:20:43.195Z,13906.09
2022-08-07T16:23:54.727Z,13880.73
2022-08-07T16:26:30.874Z,13887.53
2022-08-07T16:29:18.787Z,13884.91
2022-08-07T16:32:33.169Z,13849.72
2022-08-07T16:35:56.590Z,13842.32
2022-08-07T16:39:00.489Z,13850.92
2022-08-07T16:41:41.050Z,13844.68
2022-08-07T16:44:40.325Z,13873.43
2022-08-07T16:47:51.538Z,13888.72
2022-08-07T16:51:21.057Z,13883.20
2022-08-07T16:54:18.362Z,13885.61
2022-08-07T16:56:49.053Z,13866.94
2022-08-07T16:59:46.422Z,13890.29
2022-08-07T17:02:52.401Z,13874.34
2022-08-07T17:06:26.613Z,13861.56
2022-08-07T17:09:08.628Z,13867.59
2022-08-07T17:12:04.349Z,13895.80
2022-08-07T17:15:07.474Z,13816.87
2022-08-07T17:17:47.403Z,13833.83
2022-08-07T17:20:46.625Z,13856.67
2022-08-07T17:23:36.764Z,13857.77
2022-08-07T17:26:50.154Z,13883.76
2022-08-07T17:30:15.930Z,13865.42
2022-08-07T17:32:30.037Z,13858.13
2022-08-07T17:35:49.837Z,13867.01
2022-08-07T17:38:11.378Z,13852.46
2022-08-07T17:42:04.580Z,13853.50
2022-08-07T17:44:33.839Z,13892.53
2022-08-07T17:47:38.092Z,13876.56
2022-08-07T17:50:22.000Z,13887.45
2022-08-07T17:53:59.550Z,13877.87
2022-08-07T17:56:07.620Z,13894.96
2022-08-07T17:58:50.408Z,13899.62
2022-08-07T18:01:45.897Z,13896.34
2022-08-07T18:04:35.035Z,13900.46
2022-08-07T18:07:20.397Z,13914.39
2022-08-07T18:10:32.227Z,13945.85
2022-08-07T18:13:02.720Z,13941.79
2022-08-07T18:15:54.795Z,13933.33
2022-08-07T18:18:46.566Z,13884.89
2022-08-07T18:21:54.867Z,13919.40
2022-08-07T18:24:33.669Z,13936.49
2022-08-07T18:27:17.389Z,13927.32
2022-08-07T18:30:08.032Z,13916.48
2022-08-07T18:33:10.811Z,13934.94
2022-08-07T18:36:12.906Z,13939.00
2022-08-07T18:38:55.183Z,13904.99
2022-08-07T18:41:52.951Z,13919.43
2022-08-07T18:44:27.233Z,13923.65
2022-08-07T18:47:22.945Z,13918.54
2022-08-07T18:50:40.790Z,13930.15
2022-08-07T18:53:39.705Z,13941.58
2022-08-07T18:57:23.222Z,13950.76
2022-08-07T19:00:04.257Z,13908.44
2022-08-07T19:02:51.271Z,13914.30
2022-08-07T19:05:22.670Z,13941.33
2022-08-07T19:08:05.263Z,13935.95
2022-08-07T19:10:51.619Z,13916.19
2022-08-07T19:14:02.431Z,13929.03
2022-08-07T19:17:05.429Z,13968.23
2022-08-07T19:20:07.242Z,13985.98
2022-08-07T19:23:18.757Z,13985.55
2022-08-07T19:25:52.283Z,14014.15
2022-08-07T19:30:56.848Z,13998.99
2022-08-07T19:32:07.896Z,13989.39
2022-08-07T19:34:34.261Z,13977.15
2022-08-07T19:37:17.542Z,14021.99
2022-08-07T19:40:01.839Z,14043.42
2022-08-07T19:42:31.671Z,14046.01
2022-08-07T19:46:04.897Z,14062.92
2022-08-07T19:48:18.471Z,14050.63
2022-08-07T19:50:53.184Z,14088.26
2022-08-07T19:54:34.051Z,14097.58
2022-08-07T19:57:51.501Z,14086.36
2022-08-07T19:59:02.473Z,14126.21
2022-08-07T20:01:52.591Z,14105.73
2022-08-07T20:04:31.608Z,14095.82
2022-08-07T20:07:01.112Z,14122.95
2022-08-07T20:10:33.607Z,14138.26
2022-08-07T20:12:35.937Z,14126.00
2022-08-07T20:15:15.544Z,14152.61
2022-08-07T20:18:01.390Z,14141.52
2022-08-07T20:20:33.255Z,14149.31
2022-08-07T20:23:40.584Z,14188.04
2022-08-07T20:26:10.013Z,14188.07
2022-08-07T20:28:39.733Z,14205.50
2022-08-07T20:31:21.120Z,14223.48
2022-08-07T20:33:57.504Z,14231.79
2022-08-07T20:36:28.479Z,14226.49
2022-08-07T20:39:00.352Z,14222.89
2022-08-07T20:41:34.157Z,14235.04
2022-08-07T20:44:12.552Z,14260.40
2022-08-07T20:46:43.190Z,14256.75
2022-08-07T20:49:58.182Z,14240.30
2022-08-07T20:52:09.322Z,14253.35
2022-08-07T20:54:45.664Z,14257.31
2022-08-07T20:58:02.598Z,14243.72
2022-08-07T21:00:45.597Z,14267.50
2022-08-07T21:03:16.770Z,14224.09
2022-08-07T21:06:22.361Z,14258.43
2022-08-07T21:08:55.921Z,14250.70
2022-08-07T21:11:29.065Z,14255.44
2022-08-07T21:14:33.108Z,14254.99
2022-08-07T21:18:03.662Z,14253.72
2022-08-07T21:20:10.281Z,14258.73
2022-08-07T21:22:54.997Z,14266.65
2022-08-07T21:26:01.476Z,14270.29
2022-08-07T21:29:12.766Z,14291.14
2022-08-07T21:32:47.307Z,14294.57
2022-08-07T21:34:55.325Z,14260.50
2022-08-07T21:37:58.324Z,14241.77
2022-08-07T21:40:45.945Z,14257.88
2022-08-07T21:43:56.868Z,14306.85
2022-08-07T21:46:35.960Z,14278.35
2022-08-07T21:49:02.690Z,14284.99
2022-08-07T21:52:02.868Z,14298.53
2022-08-07T21:55:15.290Z,14305.76
2022-08-07T21:58:07.906Z,14296.12
2022-08-07T22:00:47.154Z,14296.34
2022-08-07T22:03:32.036Z,14316.20
2022-08-07T22:06:30.026Z,14285.77
2022-08-07T22:09:11.665Z,14311.57
2022-08-07T22:12:05.699Z,14364.52
2022-08-07T22:14:59.338Z,14323.41
2022-08-07T22:17:36.881Z,14328.35
2022-08-07T22:20:23.179Z,14325.53
2022-08-07T22:23:11.581Z,14359.60
2022-08-07T22:26:01.694Z,14319.91
2022-08-07T22:28:41.423Z,14311.92
2022-08-07T22:32:05.406Z,14328.51
2022-08-07T22:34:49.762Z,14352.89
2022-08-07T22:38:02.777Z,14360.89
2022-08-07T22:40:29.652Z,14344.36
2022-08-07T22:43:07.218Z,14345.09
2022-08-07T22:46:40.855Z,14376.30
2022-08-07T22:49:06.527Z,14354.57
2022-08-07T22:51:49.327Z,14374.57
2022-08-07T22:54:48.765Z,14369.09
2022-08-07T22:57:43.338Z,14355.09
2022-08-07T23:00:31.665Z,14373.73
2022-08-07T23:03:10.996Z,14362.64
2022-08-07T23:06:10.128Z,14363.15
2022-08-07T23:08:54.574Z,14368.57
2022-08-07T23:12:00.494Z,14351.63
2022-08-07T23:14:47.441Z,14370.17
2022-08-07T23:17:45.950Z,14350.41
2022-08-07T23:20:40.428Z,14351.01
2022-08-07T23:24:05.966Z,14355.41
2022-08-07T23:27:34.764Z,14355.04
2022-08-07T23:30:39.408Z,14357.02
2022-08-07T23:34:36.419Z,14369.34
2022-08-07T23:36:38.425Z,14389.09
2022-08-07T23:39:22.204Z,14357.83
2022-08-07T23:42:08.326Z,14340.71
2022-08-07T23:45:15.123Z,14352.65
2022-08-07T23:48:06.569Z,14365.19
2022-08-07T23:50:47.022Z,14323.53
2022-08-07T23:53:49.400Z,14329.54
2022-08-07T23:56:54.930Z,14331.89
